This is the latest recevied weather packets stored in our database for station/object N4OGP-WX. If no packets are shown the sender has not sent any weather packets the latest 10 day(s).
| Time | Temp. | Humidity | Pressure | Rain* | Wind** | Luminosity | Snow |
|---|---|---|---|---|---|---|---|
| 1777479169 | 27.22° C | 79% | 1014.1 hPa | 0 mm | - | - | - |
| 1777479109 | 23.89° C | 42% | 1020.4 hPa | 0 mm | - | - | - |
| 1777479049 | 27.22° C | 79% | 1014.1 hPa | 0 mm | - | - | - |
| 1777478989 | 27.22° C | 79% | 1014 hPa | 0 mm | - | - | - |
| 1777478929 | 23.89° C | 42% | 1020.4 hPa | 0 mm | - | - | - |
| 1777478869 | 27.22° C | 80% | 1014 hPa | 0 mm | - | - | - |
| 1777478779 | 23.89° C | 42% | 1020.4 hPa | 0 mm | - | - | - |
| 1777478719 | 26.67° C | 80% | 1014 hPa | 0 mm | - | - | - |
| 1777478659 | 23.89° C | 42% | 1020.4 hPa | 0 mm | - | - | - |
| 1777478599 | 26.67° C | 81% | 1013.9 hPa | 0 mm | - | - | - |
| 1777478539 | 26.67° C | 81% | 1013.9 hPa | 0 mm | - | - | - |
| 1777478479 | 23.89° C | 42% | 1020.4 hPa | 0 mm | - | - | - |
| 1777478419 | 26.67° C | 81% | 1014 hPa | 0 mm | - | - | - |
| 1777478359 | 26.67° C | 82% | 1013.9 hPa | 0 mm | - | - | - |
| 1777478299 | 26.67° C | 81% | 1013.9 hPa | 0 mm | - | - | - |
| 1777478239 | 23.89° C | 42% | 1020.4 hPa | 0 mm | - | - | - |
| 1777478179 | 26.67° C | 80% | 1013.9 hPa | 0 mm | - | - | - |
| 1777478119 | 23.89° C | 42% | 1020.4 hPa | 0 mm | - | - | - |
| 1777478059 | 23.89° C | 42% | 1020.4 hPa | 0 mm | - | - | - |
| 1777477999 | 26.67° C | 82% | 1014 hPa | 0 mm | - | - | - |
| 1777477909 | 26.67° C | 81% | 1013.9 hPa | 0 mm | - | - | - |
| 1777477819 | 23.89° C | 42% | 1020.4 hPa | 0 mm | - | - | - |
| 1777477729 | 23.89° C | 42% | 1020.4 hPa | 0 mm | - | - | - |
| 1777477669 | 26.11° C | 83% | 1014 hPa | 0 mm | - | - | - |
| 1777477609 | 23.89° C | 42% | 1020.4 hPa | 0 mm | - | - | - |
* Rain latest hour (hover to see other rain measurements)
** Current wind speed in m/s (hover to see current wind gust speed)